createdAt,value
2022-11-15T00:01:11.018Z,6.70
2022-11-15T00:03:38.402Z,7.22
2022-11-15T00:06:06.187Z,7.45
2022-11-15T00:08:33.971Z,6.93
2022-11-15T00:11:02.461Z,7.63
2022-11-15T00:13:30.293Z,6.85
2022-11-15T00:16:01.570Z,6.93
2022-11-15T00:18:29.374Z,7.68
2022-11-15T00:20:57.726Z,6.13
2022-11-15T00:23:25.145Z,6.90
2022-11-15T00:25:59.762Z,6.80
2022-11-15T00:28:27.528Z,7.10
2022-11-15T00:30:55.348Z,7.78
2022-11-15T00:33:22.745Z,6.95
2022-11-15T00:35:50.210Z,7.68
2022-11-15T00:38:17.564Z,7.00
2022-11-15T00:40:44.966Z,6.70
2022-11-15T00:43:12.324Z,6.45
2022-11-15T00:45:39.677Z,6.88
2022-11-15T00:48:07.158Z,6.68
2022-11-15T00:50:34.579Z,6.05
2022-11-15T00:53:02.127Z,6.88
2022-11-15T00:55:29.453Z,6.80
2022-11-15T00:57:57.008Z,7.03
2022-11-15T01:00:24.476Z,6.22
2022-11-15T01:02:52.013Z,6.70
2022-11-15T01:05:19.325Z,7.53
2022-11-15T01:07:46.696Z,6.53
2022-11-15T01:10:14.166Z,7.30
2022-11-15T01:12:41.542Z,6.50
2022-11-15T01:15:09.165Z,7.43
2022-11-15T01:17:36.622Z,7.85
2022-11-15T01:20:04.425Z,7.80
2022-11-15T01:22:31.892Z,6.60
2022-11-15T01:24:59.250Z,7.05
2022-11-15T01:27:26.651Z,8.07
2022-11-15T01:29:53.962Z,8.00
2022-11-15T01:32:21.389Z,8.88
2022-11-15T01:34:48.705Z,7.28
2022-11-15T01:37:16.030Z,7.70
2022-11-15T01:39:43.338Z,7.35
2022-11-15T01:42:14.091Z,7.90
2022-11-15T01:44:46.498Z,8.10
2022-11-15T01:47:18.862Z,7.65
2022-11-15T01:49:51.548Z,6.72
2022-11-15T01:52:20.052Z,6.30
2022-11-15T01:54:48.360Z,5.97
2022-11-15T01:57:15.876Z,6.72
2022-11-15T01:59:45.087Z,6.00
2022-11-15T02:02:12.670Z,6.43
2022-11-15T02:04:42.462Z,6.47
2022-11-15T02:07:11.404Z,7.43
2022-11-15T02:09:39.538Z,7.93
2022-11-15T02:12:08.370Z,8.57
2022-11-15T02:14:36.283Z,7.72
2022-11-15T02:17:42.317Z,6.90
2022-11-15T02:20:28.479Z,5.97
2022-11-15T02:23:10.753Z,7.20
2022-11-15T02:25:56.508Z,7.40
2022-11-15T02:31:11.320Z,6.85
2022-11-15T02:33:44.850Z,6.78
2022-11-15T02:36:15.316Z,6.57
2022-11-15T02:38:46.432Z,7.18
2022-11-15T02:41:23.792Z,6.57
2022-11-15T02:43:59.743Z,7.05
2022-11-15T02:46:47.105Z,6.80
2022-11-15T02:49:16.406Z,6.47
2022-11-15T02:51:46.013Z,7.35
2022-11-15T02:54:19.146Z,6.05
2022-11-15T02:56:47.671Z,6.18
2022-11-15T02:59:15.087Z,5.93
2022-11-15T03:01:42.514Z,6.15
2022-11-15T03:04:45.394Z,5.95
2022-11-15T03:07:15.473Z,6.30
2022-11-15T03:09:49.569Z,6.30
2022-11-15T03:12:19.963Z,6.15
2022-11-15T03:14:58.974Z,6.07
2022-11-15T03:17:26.457Z,6.60
2022-11-15T03:19:56.196Z,6.68
2022-11-15T03:22:26.376Z,6.60
2022-11-15T03:24:59.792Z,6.20
2022-11-15T03:27:29.485Z,8.10
2022-11-15T03:30:07.551Z,5.70
2022-11-15T03:32:41.033Z,6.20
2022-11-15T03:35:14.216Z,6.97
2022-11-15T03:37:48.216Z,5.30
2022-11-15T03:40:16.516Z,6.70
2022-11-15T03:43:02.855Z,7.63
2022-11-15T03:45:48.780Z,7.22
2022-11-15T03:48:19.123Z,6.00
2022-11-15T03:50:47.618Z,5.93
2022-11-15T03:53:15.035Z,5.65
2022-11-15T03:55:42.423Z,6.22
2022-11-15T03:58:09.928Z,6.40
2022-11-15T04:00:37.517Z,5.65
2022-11-15T04:03:04.989Z,6.75
2022-11-15T04:05:32.440Z,5.72
2022-11-15T04:07:59.876Z,6.22
2022-11-15T04:10:27.210Z,5.45
2022-11-15T04:12:54.812Z,5.93
2022-11-15T04:15:23.730Z,5.25
2022-11-15T04:17:51.276Z,5.28
2022-11-15T04:20:39.327Z,5.00
2022-11-15T04:23:26.621Z,5.80
2022-11-15T04:25:56.031Z,6.20
2022-11-15T04:28:23.725Z,5.85
2022-11-15T04:31:13.457Z,7.25
2022-11-15T04:33:40.791Z,5.68
2022-11-15T04:36:27.188Z,5.43
2022-11-15T04:38:54.553Z,6.10
2022-11-15T04:41:22.055Z,6.20
2022-11-15T04:43:49.323Z,6.97
2022-11-15T04:46:16.749Z,6.50
2022-11-15T04:48:44.071Z,8.07
2022-11-15T04:51:11.383Z,6.63
2022-11-15T04:53:38.720Z,6.32
2022-11-15T04:56:06.115Z,6.65
2022-11-15T04:58:33.535Z,6.75
2022-11-15T05:01:07.910Z,6.18
2022-11-15T05:03:54.015Z,6.80
2022-11-15T05:06:21.341Z,5.90
2022-11-15T05:08:48.700Z,5.10
2022-11-15T05:11:16.032Z,6.05
2022-11-15T05:13:43.370Z,5.80
2022-11-15T05:16:10.751Z,5.82
2022-11-15T05:18:41.715Z,5.50
2022-11-15T05:21:10.788Z,5.72
2022-11-15T05:23:38.633Z,5.78
2022-11-15T05:26:09.196Z,5.95
2022-11-15T05:28:37.640Z,6.80
2022-11-15T05:31:08.926Z,5.55
2022-11-15T05:33:37.460Z,5.80
2022-11-15T05:36:07.220Z,6.05
2022-11-15T05:38:35.064Z,5.72
2022-11-15T05:41:03.821Z,5.68
2022-11-15T05:43:32.927Z,5.95
2022-11-15T05:46:00.976Z,5.40
2022-11-15T05:48:28.379Z,4.93
2022-11-15T05:50:55.756Z,6.13
2022-11-15T05:53:24.523Z,6.95
2022-11-15T05:55:51.944Z,5.82
2022-11-15T05:58:20.305Z,5.78
2022-11-15T06:00:47.865Z,6.53
2022-11-15T06:03:15.383Z,6.47
2022-11-15T06:05:42.705Z,5.85
2022-11-15T06:08:10.083Z,5.70
2022-11-15T06:10:37.509Z,6.03
2022-11-15T06:13:05.965Z,5.07
2022-11-15T06:15:36.273Z,6.32
2022-11-15T06:18:03.597Z,5.55
2022-11-15T06:20:31.872Z,6.35
2022-11-15T06:23:02.909Z,5.70
2022-11-15T06:25:30.783Z,5.82
2022-11-15T06:27:58.771Z,6.10
2022-11-15T06:30:26.819Z,5.53
2022-11-15T06:33:00.112Z,6.43
2022-11-15T06:35:27.641Z,6.55
2022-11-15T06:37:54.976Z,6.15
2022-11-15T06:40:22.324Z,8.20
2022-11-15T06:42:49.633Z,9.48
2022-11-15T06:45:17.018Z,8.60
2022-11-15T06:47:48.172Z,8.05
2022-11-15T06:50:15.604Z,7.57
2022-11-15T06:52:42.954Z,8.30
2022-11-15T06:55:10.734Z,7.70
2022-11-15T06:57:38.530Z,7.38
2022-11-15T07:00:06.790Z,7.10
2022-11-15T07:02:34.175Z,8.45
2022-11-15T07:05:01.715Z,6.85
2022-11-15T07:07:29.050Z,9.80
2022-11-15T07:09:56.631Z,7.18
2022-11-15T07:12:23.962Z,7.88
2022-11-15T07:14:51.474Z,7.85
2022-11-15T07:17:18.801Z,7.57
2022-11-15T07:19:46.103Z,8.75
2022-11-15T07:22:13.519Z,10.38
2022-11-15T07:24:40.872Z,8.25
2022-11-15T07:27:08.377Z,9.02
2022-11-15T07:29:35.764Z,8.18
2022-11-15T07:32:03.204Z,9.07
2022-11-15T07:34:30.537Z,10.30
2022-11-15T07:36:58.087Z,13.63
2022-11-15T07:39:25.484Z,11.48
2022-11-15T07:42:13.062Z,14.35
2022-11-15T07:44:40.386Z,14.57
2022-11-15T07:47:07.865Z,12.32
2022-11-15T07:49:35.238Z,10.00
2022-11-15T07:52:02.820Z,7.80
2022-11-15T07:54:30.121Z,9.10
2022-11-15T07:56:59.315Z,10.23
2022-11-15T07:59:29.880Z,7.88
2022-11-15T08:01:57.706Z,8.52
2022-11-15T08:04:25.173Z,8.77
2022-11-15T08:06:52.659Z,9.93
2022-11-15T08:09:20.163Z,10.00
2022-11-15T08:11:47.813Z,9.93
2022-11-15T08:14:15.202Z,10.07
2022-11-15T08:16:42.566Z,9.98
2022-11-15T08:19:09.873Z,8.18
2022-11-15T08:21:38.647Z,6.82
2022-11-15T08:24:06.313Z,5.85
2022-11-15T08:26:33.918Z,6.80
2022-11-15T08:29:01.370Z,5.28
2022-11-15T08:31:28.748Z,5.68
2022-11-15T08:33:56.387Z,4.75
2022-11-15T08:36:23.718Z,6.22
2022-11-15T08:38:51.082Z,5.25
2022-11-15T08:41:29.604Z,5.47
2022-11-15T08:43:56.972Z,5.55
2022-11-15T08:46:24.930Z,5.75
2022-11-15T08:48:52.439Z,5.88
2022-11-15T08:51:19.760Z,4.65
2022-11-15T08:53:47.106Z,5.28
2022-11-15T08:56:15.559Z,4.82
2022-11-15T08:58:43.788Z,4.88
2022-11-15T09:01:21.655Z,5.07
2022-11-15T09:03:49.499Z,5.72
2022-11-15T09:06:16.916Z,4.85
2022-11-15T09:08:57.310Z,4.78
2022-11-15T09:11:24.876Z,4.53
2022-11-15T09:13:52.977Z,4.45
2022-11-15T09:16:20.448Z,4.68
2022-11-15T09:18:47.878Z,8.32
2022-11-15T09:21:15.237Z,5.47
2022-11-15T09:23:42.849Z,6.10
2022-11-15T09:26:10.328Z,4.85
2022-11-15T09:28:38.006Z,4.97
2022-11-15T09:31:06.486Z,4.30
2022-11-15T09:33:34.154Z,4.70
2022-11-15T09:36:03.456Z,4.55
2022-11-15T09:38:31.194Z,4.57
2022-11-15T09:41:19.174Z,4.30
2022-11-15T09:44:00.369Z,4.82
2022-11-15T09:46:46.209Z,4.03
2022-11-15T09:49:16.137Z,4.97
2022-11-15T09:51:48.926Z,4.78
2022-11-15T09:57:19.678Z,4.28
2022-11-15T10:00:43.907Z,4.00
2022-11-15T10:05:22.394Z,3.85
2022-11-15T10:08:08.553Z,3.83
2022-11-15T10:10:35.947Z,4.57
2022-11-15T10:13:03.580Z,3.60
2022-11-15T10:15:31.242Z,3.95
2022-11-15T10:18:01.821Z,3.75
2022-11-15T10:20:30.548Z,3.65
2022-11-15T10:23:00.923Z,3.50
2022-11-15T10:25:32.548Z,3.80
2022-11-15T10:28:07.882Z,3.53
2022-11-15T10:30:36.918Z,3.10
2022-11-15T10:33:13.316Z,3.70
2022-11-15T10:35:40.795Z,3.53
2022-11-15T10:38:09.720Z,3.45
2022-11-15T10:40:37.500Z,3.22
2022-11-15T10:43:27.346Z,2.70
2022-11-15T10:45:54.681Z,3.53
2022-11-15T10:48:23.960Z,3.88
2022-11-15T10:50:52.811Z,3.92
2022-11-15T10:53:20.410Z,3.80
2022-11-15T10:55:52.012Z,3.70
2022-11-15T10:58:22.483Z,3.53
2022-11-15T11:00:49.862Z,3.55
2022-11-15T11:03:31.508Z,3.30
2022-11-15T11:06:25.264Z,3.92
2022-11-15T11:08:58.818Z,3.83
2022-11-15T11:11:26.712Z,3.25
2022-11-15T11:13:54.552Z,3.10
2022-11-15T11:16:24.695Z,4.22
2022-11-15T11:18:59.317Z,4.68
2022-11-15T11:21:38.410Z,4.03
2022-11-15T11:24:14.417Z,3.10
2022-11-15T11:26:41.770Z,4.55
2022-11-15T11:29:20.661Z,4.60
2022-11-15T11:31:53.749Z,4.00
2022-11-15T11:34:36.218Z,3.45
2022-11-15T11:37:13.301Z,3.88
2022-11-15T11:39:49.925Z,4.30
2022-11-15T11:42:28.530Z,3.58
2022-11-15T11:45:02.130Z,3.90
2022-11-15T11:47:36.967Z,3.50
2022-11-15T11:50:16.177Z,3.85
2022-11-15T11:52:47.402Z,4.22
2022-11-15T11:55:15.016Z,3.22
2022-11-15T11:57:48.512Z,4.30
2022-11-15T12:00:23.769Z,3.47
2022-11-15T12:02:57.244Z,3.42
2022-11-15T12:05:28.864Z,3.42
2022-11-15T12:08:04.101Z,3.47
2022-11-15T12:10:33.938Z,4.35
2022-11-15T12:13:08.114Z,3.78
2022-11-15T12:15:58.280Z,3.35
2022-11-15T12:18:25.934Z,3.88
2022-11-15T12:20:57.391Z,3.15
2022-11-15T12:23:30.574Z,3.47
2022-11-15T12:26:09.323Z,4.03
2022-11-15T12:28:53.169Z,3.67
2022-11-15T12:31:28.810Z,3.60
2022-11-15T12:34:05.864Z,3.40
2022-11-15T12:36:34.609Z,3.60
2022-11-15T12:39:05.994Z,3.42
2022-11-15T12:41:37.871Z,4.03
2022-11-15T12:44:06.133Z,3.00
2022-11-15T12:46:33.491Z,3.78
2022-11-15T12:49:00.840Z,3.03
2022-11-15T12:52:00.271Z,3.40
2022-11-15T12:54:31.999Z,4.45
2022-11-15T12:57:05.422Z,5.50
2022-11-15T12:59:51.865Z,5.78
2022-11-15T13:02:37.738Z,3.55
2022-11-15T13:05:18.962Z,3.08
2022-11-15T13:07:46.363Z,3.58
2022-11-15T13:10:13.819Z,3.20
2022-11-15T13:12:47.681Z,2.78
2022-11-15T13:15:15.185Z,3.75
2022-11-15T13:17:42.554Z,3.00
2022-11-15T13:20:12.631Z,3.47
2022-11-15T13:22:55.549Z,3.22
2022-11-15T13:25:38.046Z,3.15
2022-11-15T13:28:08.042Z,3.13
2022-11-15T13:30:35.563Z,3.05
2022-11-15T13:33:10.303Z,3.47
2022-11-15T13:35:40.667Z,3.50
2022-11-15T13:38:08.503Z,3.30
2022-11-15T13:40:36.926Z,3.20
2022-11-15T13:43:23.063Z,3.10
2022-11-15T13:46:09.950Z,3.40
2022-11-15T13:48:37.526Z,3.60
2022-11-15T13:51:06.807Z,3.00
2022-11-15T13:53:35.588Z,2.92
2022-11-15T13:56:04.790Z,3.20
2022-11-15T13:58:32.786Z,3.17
2022-11-15T14:01:04.890Z,3.05
2022-11-15T14:03:33.904Z,2.97
2022-11-15T14:06:05.812Z,2.88
2022-11-15T14:08:33.199Z,3.70
2022-11-15T14:11:13.777Z,3.35
2022-11-15T14:13:41.441Z,3.15
2022-11-15T14:16:22.264Z,3.20
2022-11-15T14:18:51.583Z,4.30
2022-11-15T14:21:19.657Z,3.10
2022-11-15T14:23:47.601Z,3.25
2022-11-15T14:26:34.875Z,3.72
2022-11-15T14:29:21.037Z,4.15
2022-11-15T14:31:48.350Z,4.65
2022-11-15T14:34:15.757Z,4.45
2022-11-15T14:36:43.644Z,4.40
2022-11-15T14:39:11.189Z,4.82
2022-11-15T14:41:41.920Z,3.13
2022-11-15T14:44:13.523Z,3.47
2022-11-15T14:46:40.983Z,4.50
2022-11-15T14:49:08.436Z,3.67
2022-11-15T14:51:35.914Z,2.95
2022-11-15T14:54:03.509Z,3.20
2022-11-15T14:56:30.862Z,3.13
2022-11-15T14:58:59.316Z,2.72
2022-11-15T15:01:27.541Z,2.63
2022-11-15T15:03:58.245Z,3.10
2022-11-15T15:06:25.633Z,2.95
2022-11-15T15:08:53.394Z,2.95
2022-11-15T15:11:20.723Z,3.08
2022-11-15T15:13:48.031Z,4.00
2022-11-15T15:16:18.489Z,3.30
2022-11-15T15:18:45.877Z,3.20
2022-11-15T15:21:37.056Z,3.50
2022-11-15T15:24:05.250Z,3.05
2022-11-15T15:26:37.527Z,3.90
2022-11-15T15:29:05.197Z,3.20
2022-11-15T15:31:33.949Z,3.47
2022-11-15T15:34:01.300Z,3.25
2022-11-15T15:36:28.784Z,3.65
2022-11-15T15:38:56.158Z,3.05
2022-11-15T15:41:23.721Z,3.78
2022-11-15T15:43:51.185Z,2.80
2022-11-15T15:46:19.703Z,2.78
2022-11-15T15:48:47.930Z,2.92
2022-11-15T15:51:20.137Z,3.47
2022-11-15T15:53:48.436Z,2.53
2022-11-15T15:56:16.154Z,2.85
2022-11-15T15:58:43.466Z,2.88
2022-11-15T16:01:10.945Z,2.67
2022-11-15T16:03:38.566Z,2.42
2022-11-15T16:06:06.368Z,3.00
2022-11-15T16:08:53.458Z,3.15
2022-11-15T16:11:21.314Z,2.90
2022-11-15T16:13:48.656Z,2.40
2022-11-15T16:16:16.042Z,2.90
2022-11-15T16:18:43.453Z,2.65
2022-11-15T16:21:10.852Z,2.70
2022-11-15T16:23:38.238Z,3.00
2022-11-15T16:26:13.090Z,3.10
2022-11-15T16:28:40.394Z,2.55
2022-11-15T16:31:10.771Z,2.88
2022-11-15T16:33:38.629Z,2.55
2022-11-15T16:36:06.725Z,2.40
2022-11-15T16:38:34.591Z,2.58
2022-11-15T16:41:02.678Z,2.63
2022-11-15T16:43:30.079Z,3.10
2022-11-15T16:45:57.661Z,4.18
2022-11-15T16:48:26.157Z,3.35
2022-11-15T16:50:57.702Z,3.30
2022-11-15T16:53:25.539Z,3.08
2022-11-15T16:55:53.057Z,3.78
2022-11-15T16:58:20.364Z,2.95
2022-11-15T17:00:52.656Z,2.70
2022-11-15T17:03:24.915Z,2.97
2022-11-15T17:05:52.950Z,3.53
2022-11-15T17:08:22.220Z,3.00
2022-11-15T17:11:09.772Z,3.40
2022-11-15T17:13:38.425Z,3.47
2022-11-15T17:16:06.962Z,2.88
2022-11-15T17:18:37.270Z,3.00
2022-11-15T17:21:23.284Z,2.80
2022-11-15T17:24:12.667Z,3.10
2022-11-15T17:26:57.690Z,3.08
2022-11-15T17:29:27.519Z,3.42
2022-11-15T17:31:56.278Z,3.40
2022-11-15T17:34:26.206Z,3.75
2022-11-15T17:36:53.850Z,3.80
2022-11-15T17:39:34.546Z,3.53
2022-11-15T17:42:02.036Z,3.92
2022-11-15T17:44:29.445Z,3.17
2022-11-15T17:46:57.734Z,3.38
2022-11-15T17:49:27.269Z,3.60
2022-11-15T17:51:55.426Z,2.97
2022-11-15T17:54:25.042Z,4.00
2022-11-15T17:56:52.518Z,3.95
2022-11-15T17:59:25.067Z,3.40
2022-11-15T18:01:56.685Z,3.10
2022-11-15T18:04:39.300Z,3.85
2022-11-15T18:07:25.467Z,3.85
2022-11-15T18:10:12.321Z,3.40
2022-11-15T18:12:43.209Z,3.08
2022-11-15T18:15:10.795Z,3.53
2022-11-15T18:17:38.190Z,3.00
2022-11-15T18:20:21.220Z,3.67
2022-11-15T18:22:49.378Z,3.15
2022-11-15T18:25:18.582Z,4.05
2022-11-15T18:27:47.192Z,3.50
2022-11-15T18:30:19.664Z,3.13
2022-11-15T18:32:47.494Z,3.55
2022-11-15T18:35:15.335Z,3.63
2022-11-15T18:37:43.301Z,2.78
2022-11-15T18:40:30.923Z,2.95
2022-11-15T18:42:58.954Z,4.05
2022-11-15T18:45:26.334Z,28.52
2022-11-15T18:47:55.599Z,15.00
2022-11-15T18:50:22.928Z,16.38
2022-11-15T18:52:50.573Z,8.60
2022-11-15T18:55:17.936Z,3.85
2022-11-15T18:57:49.535Z,6.85
2022-11-15T19:00:24.747Z,3.55
2022-11-15T19:03:06.465Z,3.05
2022-11-15T19:05:35.577Z,4.18
2022-11-15T19:08:03.000Z,7.25
2022-11-15T19:10:30.453Z,6.20
2022-11-15T19:12:58.058Z,5.20
2022-11-15T19:15:25.407Z,3.35
2022-11-15T19:17:53.243Z,2.88
2022-11-15T19:20:31.201Z,3.13
2022-11-15T19:22:59.749Z,2.95
2022-11-15T19:25:29.005Z,3.05
2022-11-15T19:27:58.493Z,3.70
2022-11-15T19:30:25.927Z,3.92
2022-11-15T19:32:53.288Z,2.70
2022-11-15T19:35:22.712Z,2.63
2022-11-15T19:37:50.146Z,3.00
2022-11-15T19:40:17.679Z,2.65
2022-11-15T19:42:45.033Z,3.20
2022-11-15T19:45:12.458Z,2.60
2022-11-15T19:47:40.255Z,2.60
2022-11-15T19:50:08.156Z,2.40
2022-11-15T19:52:36.287Z,2.38
2022-11-15T19:55:04.096Z,3.00
2022-11-15T19:57:31.525Z,3.20
2022-11-15T20:00:04.332Z,2.90
2022-11-15T20:02:34.313Z,2.75
2022-11-15T20:05:01.671Z,2.83
2022-11-15T20:07:30.000Z,3.10
2022-11-15T20:10:04.321Z,2.63
2022-11-15T20:12:31.963Z,3.13
2022-11-15T20:15:03.981Z,2.92
2022-11-15T20:17:41.394Z,3.38
2022-11-15T20:20:11.721Z,3.20
2022-11-15T20:22:39.133Z,2.60
2022-11-15T20:25:06.962Z,2.70
2022-11-15T20:27:34.343Z,2.65
2022-11-15T20:30:01.745Z,2.90
2022-11-15T20:32:29.297Z,2.10
2022-11-15T20:34:56.826Z,2.83
2022-11-15T20:37:24.243Z,2.60
2022-11-15T20:40:02.111Z,2.95
2022-11-15T20:42:30.100Z,2.47
2022-11-15T20:44:57.464Z,2.50
2022-11-15T20:47:29.124Z,2.22
2022-11-15T20:50:35.544Z,2.50
2022-11-15T20:52:59.092Z,3.28
2022-11-15T20:55:26.617Z,2.60
2022-11-15T20:58:00.599Z,2.78
2022-11-15T21:00:27.989Z,2.45
2022-11-15T21:02:55.404Z,2.80
2022-11-15T21:05:43.130Z,2.50
2022-11-15T21:08:12.148Z,2.38
2022-11-15T21:10:59.995Z,3.05
2022-11-15T21:13:47.706Z,3.17
2022-11-15T21:16:20.193Z,3.00
2022-11-15T21:18:49.371Z,3.47
2022-11-15T21:21:17.543Z,3.45
2022-11-15T21:23:44.913Z,3.35
2022-11-15T21:26:12.264Z,3.03
2022-11-15T21:28:40.135Z,3.35
2022-11-15T21:31:07.721Z,3.28
2022-11-15T21:33:35.258Z,3.40
2022-11-15T21:36:02.625Z,2.80
2022-11-15T21:38:30.743Z,3.33
2022-11-15T21:40:58.693Z,2.90
2022-11-15T21:43:26.024Z,2.92
2022-11-15T21:45:56.980Z,3.33
2022-11-15T21:48:24.386Z,3.33
2022-11-15T21:50:59.377Z,3.13
2022-11-15T21:53:27.633Z,3.28
2022-11-15T21:55:55.282Z,3.10
2022-11-15T21:58:26.948Z,3.20
2022-11-15T22:01:16.518Z,2.95
2022-11-15T22:03:44.127Z,3.03
2022-11-15T22:06:17.699Z,2.85
2022-11-15T22:08:51.503Z,3.00
2022-11-15T22:11:19.994Z,3.22
2022-11-15T22:13:47.828Z,3.10
2022-11-15T22:16:17.956Z,2.85
2022-11-15T22:18:46.847Z,3.47
2022-11-15T22:21:15.897Z,2.67
2022-11-15T22:23:43.833Z,3.40
2022-11-15T22:26:12.629Z,3.13
2022-11-15T22:28:40.318Z,3.20
2022-11-15T22:31:07.675Z,3.30
2022-11-15T22:33:37.361Z,3.15
2022-11-15T22:36:05.660Z,3.38
2022-11-15T22:38:33.539Z,2.63
2022-11-15T22:41:02.669Z,3.45
2022-11-15T22:43:39.045Z,3.10
2022-11-15T22:46:07.186Z,2.92
2022-11-15T22:48:36.703Z,2.97
2022-11-15T22:51:04.635Z,2.97
2022-11-15T22:53:32.046Z,2.50
2022-11-15T22:56:00.613Z,3.00
2022-11-15T22:58:28.804Z,2.97
2022-11-15T23:00:57.619Z,3.15
2022-11-15T23:03:25.764Z,3.47
2022-11-15T23:05:54.083Z,3.08
2022-11-15T23:08:24.181Z,3.30
2022-11-15T23:11:10.524Z,2.88
2022-11-15T23:13:41.668Z,2.95
2022-11-15T23:16:28.631Z,3.78
2022-11-15T23:19:06.424Z,2.72
2022-11-15T23:21:54.117Z,3.35
2022-11-15T23:24:24.311Z,3.10
2022-11-15T23:26:56.869Z,3.30
2022-11-15T23:29:29.877Z,3.10
2022-11-15T23:32:16.462Z,3.20
2022-11-15T23:34:45.102Z,3.13
2022-11-15T23:37:16.143Z,2.65
2022-11-15T23:40:03.207Z,3.10
2022-11-15T23:42:31.742Z,3.00
2022-11-15T23:44:59.275Z,3.50
2022-11-15T23:47:27.710Z,2.90
2022-11-15T23:50:15.521Z,3.17
2022-11-15T23:52:42.932Z,3.05
2022-11-15T23:55:10.538Z,2.60
2022-11-15T23:57:37.923Z,2.88
